Terminal Aerodrome Forecast
Issued by NWS

Home | Current Version | Previous Version | Text Only | Print | Product List | Glossary On
Versions: 1 2 3 4 5 6 7 8 9 10 11 12 13 14 15
000
FTUS44 KMAF 311100
TAFINK
TAF
KINK 311121Z 3112/0112 04009KT P6SM FEW250
      TEMPO 3112/3116 SCT050 BKN060
     FM010000 10005KT P6SM SCT200=

USA.gov is the U.S. government's official web portal to all federal, state and local government web resources and services.